Time;durP1;ratioP1;P1;durP2;ratioP2;P2;SDS_P1;SDS_P2;PMS_P1;PMS_P2;Temp;Humidity;BMP_temperature;BMP_pressure;BME280_temperature;BME280_humidity;BME280_pressure;Samples;Min_cycle;Max_cycle;Signal;HPM_P1;HPM_P2
2021/03/04 00:00:32;;;;;;;67.75;26.90;;;7.40;99.90;;;;;;5100408;28;20124;-65
2021/03/04 00:02:59;;;;;;;71.72;27.25;;;7.40;99.90;;;;;;5100459;28;20044;-66
2021/03/04 00:05:24;;;;;;;61.47;27.00;;;7.40;99.90;;;;;;5095806;28;20416;-65
2021/03/04 00:07:50;;;;;;;;;;;7.40;99.90;;;;;;5080791;28;20039;-65
2021/03/04 00:10:20;;;;;;;66.32;25.45;;;7.50;99.90;;;;;;5094393;28;20370;-65
2021/03/04 00:12:47;;;;;;;64.82;25.13;;;7.40;99.90;;;;;;5100465;28;20381;-65
2021/03/04 00:15:14;;;;;;;75.22;27.13;;;7.40;99.90;;;;;;5090625;28;20036;-65
2021/03/04 00:17:40;;;;;;;63.83;25.77;;;7.40;99.90;;;;;;5081032;28;20044;-65
2021/03/04 00:20:08;;;;;;;;;;;7.40;99.90;;;;;;5086757;28;20400;-65
2021/03/04 00:22:35;;;;;;;68.68;25.42;;;7.40;99.90;;;;;;5085560;28;20513;-65
2021/03/04 00:25:01;;;;;;;63.85;26.23;;;7.50;99.90;;;;;;5084806;28;20491;-65
2021/03/04 00:27:26;;;;;;;;;;;7.40;99.90;;;;;;5086662;28;20050;-65
2021/03/04 00:29:52;;;;;;;72.38;27.00;;;7.40;99.90;;;;;;5073767;28;19916;-65
2021/03/04 00:32:17;;;;;;;;;;;7.30;99.90;;;;;;5086756;28;20050;-65
2021/03/04 00:34:43;;;;;;;60.30;25.02;;;7.30;99.90;;;;;;5084839;28;19930;-65
2021/03/04 00:37:08;;;;;;;;;;;7.30;99.90;;;;;;5081256;28;20625;-65
2021/03/04 00:39:34;;;;;;;74.75;26.23;;;7.30;99.90;;;;;;5085245;28;19927;-65
2021/03/04 00:41:59;;;;;;;;;;;7.30;99.90;;;;;;5067783;28;20063;-65
2021/03/04 00:44:25;;;;;;;68.95;28.25;;;7.30;99.90;;;;;;5066634;28;20384;-65
2021/03/04 00:46:50;;;;;;;;;;;7.30;99.90;;;;;;5085379;28;20393;-65
2021/03/04 00:49:16;;;;;;;72.22;28.83;;;7.40;99.90;;;;;;5080769;28;19967;-65
2021/03/04 00:51:41;;;;;;;;;;;7.40;99.90;;;;;;5070563;28;20041;-65
2021/03/04 00:54:07;;;;;;;71.43;27.67;;;7.40;99.90;;;;;;5067670;28;19971;-65
2021/03/04 00:56:33;;;;;;;;;;;7.50;99.90;;;;;;5082648;28;20575;-65
2021/03/04 00:58:59;;;;;;;71.60;27.17;;;7.50;99.90;;;;;;5087694;28;20392;-65
2021/03/04 01:01:24;;;;;;;;;;;7.50;99.90;;;;;;5085606;28;20064;-65
2021/03/04 01:03:50;;;;;;;66.60;27.27;;;7.60;99.90;;;;;;5087062;28;20253;-65
2021/03/04 01:06:17;;;;;;;;;;;7.60;99.90;;;;;;5071555;28;20048;-65
2021/03/04 01:08:45;;;;;;;71.55;29.33;;;7.60;99.90;;;;;;5068766;28;19917;-65
2021/03/04 01:11:11;;;;;;;77.25;29.02;;;7.60;99.90;;;;;;5085328;28;20071;-65
2021/03/04 01:13:36;;;;;;;89.00;33.47;;;7.60;99.90;;;;;;5086140;28;20099;-65
2021/03/04 01:16:02;;;;;;;;;;;7.50;99.90;;;;;;5073199;28;20473;-65
2021/03/04 01:18:28;;;;;;;82.80;31.77;;;7.50;99.90;;;;;;5074050;28;19973;-67
2021/03/04 01:20:53;;;;;;;;;;;7.50;99.90;;;;;;5086432;28;20044;-65
2021/03/04 01:23:19;;;;;;;76.35;29.95;;;7.50;99.90;;;;;;5068512;28;19920;-65
2021/03/04 01:25:44;;;;;;;;;;;7.40;99.90;;;;;;5085624;28;20040;-65
2021/03/04 01:28:10;;;;;;;75.03;30.33;;;7.40;99.90;;;;;;5083659;28;19919;-65
2021/03/04 01:30:35;;;;;;;;;;;7.40;99.90;;;;;;5086637;28;20032;-65
2021/03/04 01:33:01;;;;;;;95.47;33.50;;;7.30;99.90;;;;;;5086755;28;19977;-65
2021/03/04 01:35:27;;;;;;;;;;;7.20;99.90;;;;;;5086217;28;20043;-65
2021/03/04 01:37:54;;;;;;;78.35;33.30;;;7.20;99.90;;;;;;5084264;28;19916;-65
2021/03/04 01:40:23;;;;;;;84.47;36.20;;;7.20;99.90;;;;;;5086770;28;20036;-65
2021/03/04 01:42:52;;;;;;;86.35;34.85;;;7.20;99.90;;;;;;5068564;28;20538;-65
2021/03/04 01:45:19;;;;;;;90.85;37.90;;;7.20;99.90;;;;;;5072036;28;20754;-65
2021/03/04 01:47:53;;;;;;;99.80;39.42;;;7.20;99.90;;;;;;5081385;28;20520;-65
2021/03/04 01:50:20;;;;;;;91.22;36.55;;;7.10;99.90;;;;;;5086363;28;20520;-65
2021/03/04 01:52:46;;;;;;;99.32;40.22;;;7.10;99.90;;;;;;5071646;28;20067;-65
2021/03/04 01:55:14;;;;;;;;;;;7.10;99.90;;;;;;5071944;28;20430;-65
2021/03/04 01:57:40;;;;;;;94.70;36.20;;;7.10;99.90;;;;;;5086353;28;19965;-65
2021/03/04 02:00:08;;;;;;;97.03;39.08;;;7.10;99.90;;;;;;5086113;28;20543;-64
2021/03/04 02:02:33;;;;;;;88.28;37.22;;;7.00;99.90;;;;;;5074711;28;20083;-65
2021/03/04 02:04:59;;;;;;;;;;;7.00;99.90;;;;;;5066751;28;20461;-65
2021/03/04 02:07:44;;;;;;;90.38;34.35;;;7.10;99.90;;;;;;5066075;28;19963;-64
2021/03/04 02:10:12;;;;;;;90.10;36.90;;;7.10;99.90;;;;;;5079462;28;20097;-65
2021/03/04 02:12:46;;;;;;;98.07;39.20;;;7.10;99.90;;;;;;5067640;28;20036;-65
2021/03/04 02:15:17;;;;;;;104.97;40.47;;;7.20;99.90;;;;;;5064152;28;20059;-65
2021/03/04 02:17:48;;;;;;;101.90;42.08;;;7.20;99.90;;;;;;5066957;28;20060;-65
2021/03/04 02:20:28;;;;;;;95.75;42.08;;;7.30;99.90;;;;;;5085954;28;20040;-65
2021/03/04 02:23:07;;;;;;;108.85;42.22;;;7.20;99.90;;;;;;5084887;28;20177;-65
2021/03/04 02:25:39;;;;;;;100.20;41.20;;;7.30;99.90;;;;;;5085662;28;20077;-65
2021/03/04 02:28:06;;;;;;;114.15;46.72;;;7.30;99.90;;;;;;5084935;28;20082;-65
2021/03/04 02:30:37;;;;;;;101.13;41.78;;;7.40;99.90;;;;;;5084437;28;20431;-65
2021/03/04 02:33:11;;;;;;;108.15;46.45;;;7.40;99.90;;;;;;5078420;28;20036;-65
2021/03/04 02:35:38;;;;;;;110.57;46.38;;;7.40;99.90;;;;;;5082011;28;20104;-64
2021/03/04 02:38:11;;;;;;;101.93;45.45;;;7.40;99.90;;;;;;5079491;28;20035;-65
2021/03/04 02:40:40;;;;;;;113.03;50.35;;;7.40;99.90;;;;;;5084476;28;20047;-65
2021/03/04 02:43:08;;;;;;;113.72;48.53;;;7.50;99.90;;;;;;5084989;28;20173;-65
2021/03/04 02:45:34;;;;;;;111.85;46.83;;;7.50;99.90;;;;;;5084889;28;20035;-65
2021/03/04 02:48:00;;;;;;;;;;;7.50;99.90;;;;;;5080047;28;20036;-65
2021/03/04 02:50:26;;;;;;;111.90;47.47;;;7.50;99.90;;;;;;5084337;28;20383;-65
2021/03/04 02:52:52;;;;;;;;;;;7.50;99.90;;;;;;5085894;28;20118;-65
2021/03/04 02:55:19;;;;;;;115.57;51.35;;;7.40;99.90;;;;;;5064793;28;19938;-65
2021/03/04 02:57:47;;;;;;;111.43;51.80;;;7.40;99.90;;;;;;5064347;28;20075;-65
2021/03/04 03:00:18;;;;;;;107.90;48.90;;;7.30;99.90;;;;;;5064680;28;20044;-65
2021/03/04 03:02:45;;;;;;;112.47;50.58;;;7.30;99.90;;;;;;5064991;28;20049;-65
2021/03/04 03:05:13;;;;;;;106.57;51.25;;;7.30;99.90;;;;;;5064796;28;20052;-65
2021/03/04 03:07:40;;;;;;;111.82;53.03;;;7.30;99.90;;;;;;5064810;28;20493;-65
2021/03/04 03:10:08;;;;;;;118.43;54.92;;;7.20;99.90;;;;;;5077850;28;20071;-65
2021/03/04 03:12:37;;;;;;;114.15;53.13;;;7.20;99.90;;;;;;5067126;28;20794;-65
2021/03/04 03:15:10;;;;;;;118.07;54.95;;;7.20;99.90;;;;;;5076496;28;20411;-65
2021/03/04 03:17:36;;;;;;;122.50;54.17;;;7.20;99.90;;;;;;5076218;28;20048;-65
2021/03/04 03:20:10;;;;;;;109.95;52.63;;;7.10;99.90;;;;;;5077693;28;20078;-65
2021/03/04 03:22:36;;;;;;;119.93;53.47;;;7.10;99.90;;;;;;5084128;28;20087;-65
2021/03/04 03:25:07;;;;;;;120.65;53.88;;;7.10;99.90;;;;;;5075108;28;20049;-65
2021/03/04 03:27:33;;;;;;;109.90;51.08;;;7.10;99.90;;;;;;5074403;28;20040;-65
2021/03/04 03:29:59;;;;;;;;;;;7.10;99.90;;;;;;5081938;28;20042;-65
2021/03/04 03:32:29;;;;;;;111.50;50.67;;;7.10;99.90;;;;;;5067085;28;19985;-65
2021/03/04 03:34:55;;;;;;;113.20;51.22;;;7.10;99.90;;;;;;5071185;28;20040;-65
2021/03/04 03:37:22;;;;;;;115.82;52.53;;;7.10;99.90;;;;;;5064033;28;20052;-65
2021/03/04 03:39:50;;;;;;;117.72;51.28;;;7.10;99.90;;;;;;5065583;28;20040;-65
2021/03/04 03:42:17;;;;;;;119.13;57.00;;;7.20;99.90;;;;;;5080498;28;20635;-65
2021/03/04 03:44:44;;;;;;;109.22;52.17;;;7.20;99.90;;;;;;5084713;28;20048;-65
2021/03/04 03:47:10;;;;;;;117.90;53.97;;;7.10;99.90;;;;;;5081364;28;20039;-64
2021/03/04 03:49:38;;;;;;;102.13;50.35;;;7.10;99.90;;;;;;5082397;28;20071;-65
2021/03/04 03:52:05;;;;;;;121.05;55.67;;;7.10;99.90;;;;;;5068689;28;20048;-65
2021/03/04 03:54:32;;;;;;;117.97;52.20;;;7.10;99.90;;;;;;5068995;28;20048;-65
2021/03/04 03:56:59;;;;;;;104.60;50.90;;;7.10;99.90;;;;;;5084437;28;20044;-65
2021/03/04 03:59:25;;;;;;;105.60;50.65;;;7.10;99.90;;;;;;5089140;28;20048;-65
2021/03/04 04:01:51;;;;;;;109.63;53.30;;;7.10;99.90;;;;;;5088899;28;20032;-65
2021/03/04 04:04:17;;;;;;;;;;;7.00;99.90;;;;;;5089082;28;20036;-65
2021/03/04 04:06:44;;;;;;;101.15;50.05;;;7.10;99.90;;;;;;5073975;28;20376;-65
2021/03/04 04:09:10;;;;;;;100.93;47.15;;;7.10;99.90;;;;;;5074541;28;20142;-65
2021/03/04 04:11:36;;;;;;;105.35;49.13;;;7.10;99.90;;;;;;5087568;28;20087;-65
2021/03/04 04:14:02;;;;;;;100.70;50.10;;;7.00;99.90;;;;;;5088973;28;20048;-65
2021/03/04 04:16:28;;;;;;;;;;;7.10;99.90;;;;;;5087012;28;20050;-65
2021/03/04 04:18:55;;;;;;;113.25;50.70;;;7.10;99.90;;;;;;5082444;28;20462;-65
2021/03/04 04:21:22;;;;;;;94.55;49.10;;;7.00;99.90;;;;;;5088982;28;20042;-65
2021/03/04 04:23:49;;;;;;;121.18;54.08;;;7.00;99.90;;;;;;5088496;28;20039;-65
2021/03/04 04:26:16;;;;;;;106.43;51.20;;;7.10;99.90;;;;;;5087262;28;20040;-65
2021/03/04 04:28:41;;;;;;;96.93;48.85;;;7.00;99.90;;;;;;5085003;28;20496;-65
2021/03/04 04:31:07;;;;;;;;;;;7.00;99.90;;;;;;5082796;28;20032;-65
2021/03/04 04:33:33;;;;;;;111.50;52.75;;;7.10;99.90;;;;;;5088712;28;19916;-65
2021/03/04 04:35:59;;;;;;;116.75;54.08;;;7.00;99.90;;;;;;5086645;28;20036;-65
2021/03/04 04:38:24;;;;;;;;;;;7.00;99.90;;;;;;5088931;28;20043;-65
2021/03/04 04:40:50;;;;;;;97.00;46.38;;;7.10;99.90;;;;;;5081653;28;19916;-65
2021/03/04 04:43:16;;;;;;;100.00;47.05;;;7.00;99.90;;;;;;5068181;28;20036;-65
2021/03/04 04:45:42;;;;;;;;;;;7.10;99.90;;;;;;5067946;28;20039;-65
2021/03/04 04:48:08;;;;;;;101.70;47.25;;;7.10;99.90;;;;;;5072000;28;19915;-65
2021/03/04 04:50:33;;;;;;;;;;;7.00;99.90;;;;;;5085916;28;20098;-65
2021/03/04 04:52:59;;;;;;;98.18;47.47;;;7.00;99.90;;;;;;5067153;28;19969;-65
2021/03/04 04:55:24;;;;;;;;;;;6.90;99.90;;;;;;5068128;28;20041;-65
2021/03/04 04:57:50;;;;;;;100.70;49.00;;;7.00;99.90;;;;;;5079402;28;19976;-65
2021/03/04 05:00:15;;;;;;;;;;;6.90;99.90;;;;;;5084750;28;20071;-65
2021/03/04 05:02:41;;;;;;;94.55;45.35;;;6.90;99.90;;;;;;5086829;28;19924;-65
2021/03/04 05:05:07;;;;;;;;;;;6.90;99.90;;;;;;5087293;28;20048;-65
2021/03/04 05:07:33;;;;;;;100.63;45.72;;;7.00;99.90;;;;;;5087546;28;19942;-65
2021/03/04 05:09:58;;;;;;;;;;;7.00;99.90;;;;;;5075830;28;20493;-65
2021/03/04 05:12:24;;;;;;;104.03;44.83;;;7.00;99.90;;;;;;5085013;28;19916;-65
2021/03/04 05:14:51;;;;;;;;;;;7.00;99.90;;;;;;5086750;28;20503;-65
2021/03/04 05:17:19;;;;;;;95.45;43.05;;;7.00;99.90;;;;;;5081956;28;20010;-65
2021/03/04 05:19:44;;;;;;;96.97;46.88;;;7.00;99.90;;;;;;5084316;28;20047;-65
2021/03/04 05:22:10;;;;;;;;;;;7.00;99.90;;;;;;5087609;28;20446;-65
2021/03/04 05:24:35;;;;;;;98.55;46.05;;;7.00;99.90;;;;;;5082293;28;19924;-65
2021/03/04 05:27:01;;;;;;;;;;;6.90;99.90;;;;;;5067808;28;20051;-65
2021/03/04 05:29:27;;;;;;;97.40;45.70;;;7.00;99.90;;;;;;5066328;28;20036;-65
2021/03/04 05:31:52;;;;;;;;;;;6.90;99.90;;;;;;5083289;28;20044;-65
2021/03/04 05:34:18;;;;;;;113.18;49.55;;;7.00;99.90;;;;;;5086916;28;19916;-65
2021/03/04 05:36:43;;;;;;;;;;;7.00;99.90;;;;;;5087304;28;20036;-65
2021/03/04 05:39:09;;;;;;;104.25;48.42;;;7.00;99.90;;;;;;5086813;28;19935;-66
2021/03/04 05:41:34;;;;;;;;;;;6.90;99.90;;;;;;5085250;28;20051;-66
2021/03/04 05:44:00;;;;;;;108.40;47.72;;;6.80;99.90;;;;;;5085104;28;19974;-64
2021/03/04 05:46:26;;;;;;;;;;;6.70;99.90;;;;;;5072232;28;20386;-64
2021/03/04 05:48:52;;;;;;;133.23;55.08;;;6.60;99.90;;;;;;5076470;28;20002;-64
2021/03/04 05:51:25;;;;;;;;;;;6.40;99.90;;;;;;5087170;28;20067;-64
2021/03/04 05:53:56;;;;;;;124.45;57.28;;;6.40;99.90;;;;;;5066392;28;19962;-64
2021/03/04 05:56:22;;;;;;;114.95;54.35;;;6.30;99.90;;;;;;5078885;28;20043;-64
2021/03/04 05:58:47;;;;;;;;;;;6.30;99.90;;;;;;5085873;28;20040;-64
2021/03/04 06:01:13;;;;;;;101.03;46.53;;;6.30;99.90;;;;;;5080625;28;19916;-64
2021/03/04 06:03:39;;;;;;;;;;;6.30;99.90;;;;;;5074637;28;20040;-64
2021/03/04 06:06:06;;;;;;;84.20;36.67;;;6.30;99.90;;;;;;5084469;28;19916;-64
2021/03/04 06:08:31;;;;;;;96.60;46.58;;;6.40;99.90;;;;;;5077885;28;20119;-64
2021/03/04 06:10:57;;;;;;;;;;;6.40;99.90;;;;;;5083616;28;20492;-64
2021/03/04 06:13:22;;;;;;;90.07;39.00;;;6.40;99.90;;;;;;5084671;28;19920;-64
2021/03/04 06:15:48;;;;;;;;;;;6.40;99.90;;;;;;5085183;28;20536;-65
2021/03/04 06:18:13;;;;;;;75.30;33.92;;;6.50;99.90;;;;;;5080205;28;19920;-65
2021/03/04 06:20:39;;;;;;;;;;;6.50;99.90;;;;;;5082168;28;20043;-65
2021/03/04 06:23:05;;;;;;;64.75;30.17;;;6.50;99.90;;;;;;5085623;28;20278;-64
2021/03/04 06:25:31;;;;;;;;;;;6.50;99.90;;;;;;5086788;28;20078;-65
2021/03/04 06:27:57;;;;;;;70.20;33.88;;;6.60;99.90;;;;;;5084945;28;19916;-63
2021/03/04 06:30:23;;;;;;;72.35;33.75;;;6.60;99.90;;;;;;5083986;28;20040;-64
2021/03/04 06:32:57;;;;;;;76.40;35.88;;;6.60;99.90;;;;;;5085167;28;20472;-64
2021/03/04 06:35:29;;;;;;;78.75;37.47;;;6.70;99.90;;;;;;5085556;28;20145;-63
2021/03/04 06:37:54;;;;;;;76.28;36.00;;;6.70;99.90;;;;;;5082552;28;20055;-64
2021/03/04 06:40:33;;;;;;;;;;;6.70;99.90;;;;;;5065966;28;20479;-64
2021/03/04 06:42:59;;;;;;;89.28;39.45;;;6.80;99.90;;;;;;5065334;28;19921;-64
2021/03/04 06:45:33;;;;;;;83.60;38.88;;;6.80;99.90;;;;;;5064719;28;20385;-63
2021/03/04 06:48:10;;;;;;;82.25;37.03;;;6.70;99.90;;;;;;5070928;28;20033;-64
2021/03/04 06:50:36;;;;;;;79.15;35.15;;;6.80;99.90;;;;;;5079239;28;20032;-65
2021/03/04 06:53:14;;;;;;;85.65;40.05;;;6.80;99.90;;;;;;5065592;28;20052;-65
2021/03/04 06:55:52;;;;;;;76.68;37.13;;;6.80;99.90;;;;;;5065232;28;20060;-65
2021/03/04 06:58:41;;;;;;;70.40;32.45;;;6.80;99.90;;;;;;5065781;28;20049;-65
2021/03/04 07:01:15;;;;;;;83.07;36.00;;;6.90;99.90;;;;;;5062398;28;20040;-64
2021/03/04 07:03:46;;;;;;;72.00;33.38;;;6.90;99.90;;;;;;5063389;28;20110;-64
2021/03/04 07:06:14;;;;;;;73.05;35.25;;;6.90;99.90;;;;;;5062308;28;20447;-65
2021/03/04 07:08:41;;;;;;;70.45;33.17;;;7.00;99.90;;;;;;5065120;28;20159;-65
2021/03/04 07:11:09;;;;;;;72.03;34.58;;;7.10;99.90;;;;;;5079554;28;20539;-65
2021/03/04 07:13:36;;;;;;;64.10;30.95;;;7.20;99.90;;;;;;5084943;28;20384;-65
2021/03/04 07:16:12;;;;;;;64.70;31.25;;;7.30;99.90;;;;;;5085231;28;20036;-65
2021/03/04 07:18:44;;;;;;;72.43;32.55;;;7.40;99.90;;;;;;5078132;28;20559;-65
2021/03/04 07:21:13;;;;;;;61.00;31.42;;;7.40;99.90;;;;;;5079409;28;20055;-63
2021/03/04 07:23:41;;;;;;;74.38;31.63;;;7.50;99.90;;;;;;5080212;28;20078;-64
2021/03/04 07:26:08;;;;;;;67.93;30.67;;;7.60;99.90;;;;;;5080069;28;20074;-67
2021/03/04 07:28:36;;;;;;;76.72;35.20;;;7.70;99.90;;;;;;5088687;28;20044;-65
2021/03/04 07:31:02;;;;;;;63.50;30.35;;;7.80;99.90;;;;;;5074742;28;20032;-63
2021/03/04 07:33:29;;;;;;;73.78;30.98;;;8.00;99.90;;;;;;5089026;28;20040;-66
2021/03/04 07:35:56;;;;;;;64.22;29.98;;;8.20;99.90;;;;;;5068532;28;20118;-63
2021/03/04 07:38:26;;;;;;;66.28;30.63;;;8.30;99.90;;;;;;5069150;28;20044;-65
2021/03/04 07:41:12;;;;;;;68.93;32.65;;;8.30;99.90;;;;;;5068862;28;20106;-67
2021/03/04 07:43:55;;;;;;;60.58;29.13;;;8.20;99.90;;;;;;5068590;28;20392;-73
2021/03/04 07:46:44;;;;;;;67.20;29.92;;;8.30;99.90;;;;;;5068035;28;20039;-69
2021/03/04 07:49:10;;;;;;;73.00;30.85;;;8.40;99.90;;;;;;5076707;28;20044;-68
2021/03/04 07:51:44;;;;;;;64.10;28.55;;;8.40;99.90;;;;;;5084381;28;20042;-66
2021/03/04 07:54:11;;;;;;;62.90;26.70;;;8.60;99.90;;;;;;5086842;28;20475;-65
2021/03/04 07:56:37;;;;;;;63.47;31.45;;;8.80;99.90;;;;;;5087987;28;20047;-65
2021/03/04 07:59:08;;;;;;;;;;;9.00;99.90;;;;;;5087839;28;20043;-65
2021/03/04 08:01:34;;;;;;;60.35;27.42;;;9.10;99.90;;;;;;5086518;28;20367;-66
2021/03/04 08:04:01;;;;;;;;;;;9.40;99.90;;;;;;5088236;28;20044;-65
2021/03/04 08:06:27;;;;;;;68.32;27.80;;;9.50;99.90;;;;;;5069337;28;20054;-63
2021/03/04 08:08:53;;;;;;;;;;;9.70;99.90;;;;;;5076644;28;20769;-65
2021/03/04 08:11:30;;;;;;;60.28;27.70;;;10.10;99.90;;;;;;5076509;28;19967;-65
2021/03/04 08:13:56;;;;;;;59.13;26.48;;;10.30;99.90;;;;;;5089689;28;20054;-65
2021/03/04 08:16:23;;;;;;;63.80;28.80;;;10.30;99.90;;;;;;5071224;28;20123;-65
2021/03/04 08:18:53;;;;;;;60.38;26.90;;;10.10;99.90;;;;;;5076549;28;20158;-65
2021/03/04 08:21:19;;;;;;;63.78;28.80;;;9.90;99.90;;;;;;5083519;28;20043;-64
2021/03/04 08:23:45;;;;;;;57.05;27.00;;;9.80;99.90;;;;;;5084224;28;20485;-64
2021/03/04 08:26:26;;;;;;;67.50;30.60;;;9.90;99.90;;;;;;5068957;28;20587;-64
2021/03/04 08:29:12;;;;;;;54.65;27.05;;;10.10;99.90;;;;;;5069071;28;20528;-64
2021/03/04 08:31:45;;;;;;;64.40;27.58;;;10.30;99.90;;;;;;5086354;28;20047;-66
2021/03/04 08:34:11;;;;;;;71.65;28.15;;;10.30;99.90;;;;;;5080776;28;20108;-64
2021/03/04 08:36:44;;;;;;;;;;;10.20;99.90;;;;;;5074840;28;20123;-63
2021/03/04 08:39:10;;;;;;;67.65;29.63;;;9.90;99.90;;;;;;5066807;28;20030;-64
2021/03/04 08:41:36;;;;;;;61.03;27.30;;;9.80;99.90;;;;;;5067735;28;20049;-64
2021/03/04 08:44:14;;;;;;;64.60;27.65;;;9.80;99.90;;;;;;5069979;28;20078;-63
2021/03/04 08:46:41;;;;;;;62.72;29.15;;;9.90;99.90;;;;;;5086660;28;20067;-65
2021/03/04 08:49:07;;;;;;;64.85;27.20;;;9.90;99.90;;;;;;5073514;28;20031;-64
2021/03/04 08:51:43;;;;;;;52.97;24.30;;;9.80;99.90;;;;;;5082950;28;20092;-62
2021/03/04 08:54:29;;;;;;;51.60;24.77;;;9.70;99.90;;;;;;5083010;28;20261;-62
2021/03/04 08:57:02;;;;;;;64.63;25.48;;;9.50;99.90;;;;;;5084538;28;20070;-64
2021/03/04 08:59:28;;;;;;;54.85;25.73;;;9.40;99.90;;;;;;5073666;28;20669;-64
2021/03/04 09:01:54;;;;;;;;;;;9.40;99.90;;;;;;5067350;28;20041;-63
2021/03/04 09:04:28;;;;;;;58.60;26.15;;;9.40;99.90;;;;;;5078919;28;19923;-62
2021/03/04 09:06:54;;;;;;;56.47;24.67;;;9.30;99.90;;;;;;5075994;28;20036;-62
2021/03/04 09:09:24;;;;;;;59.72;26.92;;;9.40;99.90;;;;;;5082035;28;20046;-64
2021/03/04 09:11:50;;;;;;;66.88;30.90;;;9.30;99.90;;;;;;5087835;28;20040;-62
2021/03/04 09:14:15;;;;;;;;;;;9.20;99.90;;;;;;5088202;28;20123;-64
2021/03/04 09:16:51;;;;;;;66.80;31.48;;;9.10;99.90;;;;;;5087258;28;20521;-63
2021/03/04 09:19:35;;;;;;;79.10;34.47;;;9.00;99.90;;;;;;5075174;28;20036;-64
2021/03/04 09:22:04;;;;;;;66.25;33.97;;;8.90;99.90;;;;;;5086252;28;20094;-63
2021/03/04 09:24:32;;;;;;;106.55;47.72;;;8.90;99.90;;;;;;5078079;28;20048;-62
2021/03/04 09:27:01;;;;;;;95.03;48.15;;;8.70;99.90;;;;;;5086112;28;20531;-63
2021/03/04 09:29:26;;;;;;;113.65;57.97;;;8.60;99.90;;;;;;5080219;28;20055;-63
2021/03/04 09:31:52;;;;;;;;;;;8.40;99.90;;;;;;5066585;28;20258;-64
2021/03/04 09:34:18;;;;;;;155.65;72.97;;;8.20;99.90;;;;;;5074229;28;19917;-65
2021/03/04 09:36:44;;;;;;;171.88;80.03;;;8.00;99.90;;;;;;5085571;28;20066;-64
2021/03/04 09:39:10;;;;;;;;;;;7.80;99.90;;;;;;5080659;28;20539;-64
2021/03/04 09:41:35;;;;;;;138.63;68.22;;;7.70;99.90;;;;;;5066951;28;19981;-65
2021/03/04 09:44:02;;;;;;;;;;;7.60;99.90;;;;;;5076795;28;20047;-65
2021/03/04 09:46:29;;;;;;;105.60;51.67;;;7.40;99.90;;;;;;5084670;28;20371;-65
2021/03/04 09:49:20;;;;;;;98.00;47.58;;;7.30;99.90;;;;;;5068780;28;20056;-66
2021/03/04 09:51:46;;;;;;;86.50;44.83;;;7.30;99.90;;;;;;5076428;28;20040;-63
2021/03/04 09:54:26;;;;;;;75.65;39.83;;;7.20;99.90;;;;;;5065072;28;20070;-62
2021/03/04 09:57:09;;;;;;;81.65;41.08;;;7.00;99.90;;;;;;5083311;28;20117;-62
2021/03/04 09:59:52;;;;;;;71.38;39.40;;;7.00;99.90;;;;;;5083364;28;20052;-61
2021/03/04 10:02:19;;;;;;;66.10;34.45;;;6.90;99.90;;;;;;5085820;28;20047;-61
2021/03/04 10:05:03;;;;;;;60.20;32.78;;;7.00;99.90;;;;;;5086320;28;20079;-62
2021/03/04 10:07:32;;;;;;;59.92;29.13;;;7.00;99.90;;;;;;5086338;28;20097;-62
2021/03/04 10:10:00;;;;;;;37.22;22.27;;;6.90;99.90;;;;;;5066777;28;20039;-62
2021/03/04 10:12:26;;;;;;;37.20;20.90;;;6.80;99.90;;;;;;5079593;28;20047;-62
2021/03/04 10:14:53;;;;;;;;;;;6.80;99.90;;;;;;5085211;28;20040;-64
2021/03/04 10:17:20;;;;;;;30.25;16.92;;;6.80;99.90;;;;;;5081916;28;19967;-64
2021/03/04 10:19:46;;;;;;;30.77;16.45;;;6.80;99.90;;;;;;5067831;28;20036;-63
2021/03/04 10:22:11;;;;;;;;;;;6.80;99.90;;;;;;5035443;23;20053;-62
2021/03/04 10:24:37;;;;;;;30.05;16.73;;;6.90;99.90;;;;;;5005408;28;19925;-62
2021/03/04 10:27:04;;;;;;;;;;;6.90;99.90;;;;;;5006367;28;20561;-62
2021/03/04 10:29:30;;;;;;;29.08;16.80;;;6.80;99.90;;;;;;5006156;28;20433;-63
2021/03/04 10:31:56;;;;;;;31.70;17.23;;;6.70;99.90;;;;;;5005311;28;20137;-61
2021/03/04 10:34:22;;;;;;;25.13;15.50;;;6.80;99.90;;;;;;5005238;28;20077;-63
2021/03/04 10:36:49;;;;;;;33.97;19.35;;;6.80;99.90;;;;;;4998318;28;20518;-61
2021/03/04 10:39:16;;;;;;;32.95;19.75;;;6.80;99.90;;;;;;4986865;28;20290;-61
2021/03/04 10:41:43;;;;;;;55.90;29.95;;;6.80;99.90;;;;;;4997336;28;20037;-61
2021/03/04 10:44:10;;;;;;;37.47;20.02;;;6.80;99.90;;;;;;5004568;28;20452;-61
2021/03/04 10:46:36;;;;;;;29.85;17.42;;;6.80;99.90;;;;;;5004391;28;20034;-62
2021/03/04 10:49:03;;;;;;;21.38;13.23;;;6.90;99.90;;;;;;5001071;28;20038;-61
2021/03/04 10:51:28;;;;;;;22.05;13.68;;;7.00;99.90;;;;;;5004886;28;20093;-62
2021/03/04 10:53:54;;;;;;;;;;;7.10;99.90;;;;;;5005542;28;20492;-60
2021/03/04 10:56:19;;;;;;;24.23;14.13;;;7.10;99.90;;;;;;5004335;28;19924;-61
2021/03/04 10:58:45;;;;;;;;;;;7.20;99.90;;;;;;5004907;28;20124;-62
2021/03/04 11:01:10;;;;;;;24.80;14.15;;;7.20;99.90;;;;;;5004184;28;19921;-61
2021/03/04 11:03:36;;;;;;;;;;;7.40;99.90;;;;;;5003701;28;20518;-61
2021/03/04 11:06:01;;;;;;;28.02;14.75;;;7.40;99.90;;;;;;5003733;28;20563;-59
2021/03/04 11:08:27;;;;;;;;;;;7.40;99.90;;;;;;4992701;28;20820;-62
2021/03/04 11:10:52;;;;;;;29.95;16.35;;;7.30;99.90;;;;;;5005066;28;19971;-62
2021/03/04 11:13:18;;;;;;;;;;;7.40;99.90;;;;;;5002108;28;20388;-61
2021/03/04 11:15:44;;;;;;;32.15;19.10;;;7.40;99.90;;;;;;4993865;28;20063;-62
2021/03/04 11:18:09;;;;;;;;;;;7.50;99.90;;;;;;5003753;28;20048;-62
2021/03/04 11:20:35;;;;;;;28.42;18.23;;;7.40;99.90;;;;;;5001959;28;19917;-62
2021/03/04 11:23:00;;;;;;;;;;;7.40;99.90;;;;;;5004991;28;20050;-62
2021/03/04 11:25:26;;;;;;;30.60;18.50;;;7.20;99.90;;;;;;5004642;28;20709;-61
2021/03/04 11:27:51;;;;;;;;;;;7.20;99.90;;;;;;5005552;28;20045;-61
2021/03/04 11:30:18;;;;;;;27.85;16.80;;;7.20;99.90;;;;;;4991829;28;20011;-62
2021/03/04 11:32:43;;;;;;;26.05;16.65;;;7.20;99.90;;;;;;4984679;28;20499;-62
2021/03/04 11:35:09;;;;;;;;;;;7.30;99.90;;;;;;4998579;28;20037;-63
2021/03/04 11:37:34;;;;;;;27.02;16.88;;;7.30;99.90;;;;;;5004217;28;19921;-63
2021/03/04 11:40:00;;;;;;;;;;;7.30;99.90;;;;;;5005272;28;20052;-63
2021/03/04 11:42:26;;;;;;;27.13;16.13;;;7.20;99.90;;;;;;5004450;28;19917;-62
2021/03/04 11:44:51;;;;;;;;;;;7.20;99.90;;;;;;4994516;28;20049;-62
2021/03/04 11:47:17;;;;;;;29.40;17.17;;;7.10;99.90;;;;;;4986512;28;19913;-62
2021/03/04 11:49:42;;;;;;;;;;;6.90;99.90;;;;;;5003237;28;20045;-62
2021/03/04 11:52:08;;;;;;;24.98;14.57;;;7.00;99.90;;;;;;5004717;28;19921;-63
2021/03/04 11:54:34;;;;;;;;;;;7.10;99.90;;;;;;5004418;28;20042;-63
2021/03/04 11:59:27;;;;;;;24.40;14.25;;;7.10;99.90;;;;;;5068472;22;21175;-64
2021/03/04 12:01:53;;;;;;;;;;;7.10;99.90;;;;;;5039605;22;20052;-63
2021/03/04 12:04:18;;;;;;;22.90;14.65;;;6.90;99.90;;;;;;5027350;22;20389;-77
2021/03/04 12:06:45;;;;;;;;;;;7.10;99.90;;;;;;5026242;28;20498;-78
2021/03/04 12:09:11;;;;;;;29.40;15.35;;;7.10;99.90;;;;;;5025400;28;20970;-77
2021/03/04 12:11:36;;;;;;;;;;;7.10;99.90;;;;;;5028690;28;20113;-79
2021/03/04 12:14:02;;;;;;;18.63;11.57;;;7.10;99.90;;;;;;5029036;28;19917;-78
2021/03/04 12:16:28;;;;;;;;;;;7.10;99.90;;;;;;5029195;28;20041;-77
2021/03/04 12:18:55;;;;;;;23.88;13.20;;;7.10;99.90;;;;;;5029132;28;19917;-79
2021/03/04 12:21:21;;;;;;;42.45;25.13;;;7.10;99.90;;;;;;5032718;28;20508;-79
2021/03/04 12:23:47;;;;;;;;;;;7.20;99.90;;;;;;5024394;28;20041;-79
2021/03/04 12:26:12;;;;;;;20.95;12.18;;;7.20;99.90;;;;;;5011752;28;20353;-79
2021/03/04 12:28:38;;;;;;;19.40;13.07;;;7.00;99.90;;;;;;5010648;28;20040;-79
2021/03/04 12:31:04;;;;;;;23.77;13.50;;;6.80;99.90;;;;;;5010566;28;20046;-79
2021/03/04 12:33:30;;;;;;;;;;;6.70;99.90;;;;;;5011227;28;20092;-78
2021/03/04 12:35:56;;;;;;;21.88;12.55;;;6.70;99.90;;;;;;5029343;28;19928;-80
2021/03/04 12:38:22;;;;;;;23.70;14.27;;;6.70;99.90;;;;;;5030051;28;20121;-78
2021/03/04 12:40:48;;;;;;;;;;;6.60;99.90;;;;;;5028216;28;20124;-77
2021/03/04 12:43:14;;;;;;;21.48;13.43;;;6.70;99.90;;;;;;5029393;28;19964;-78
2021/03/04 12:45:39;;;;;;;;;;;6.60;99.90;;;;;;5028901;28;20405;-78
2021/03/04 12:48:07;;;;;;;28.63;15.98;;;6.50;99.90;;;;;;5028633;28;19928;-78
2021/03/04 12:50:33;;;;;;;28.02;16.83;;;6.40;99.90;;;;;;5029271;28;20042;-78
2021/03/04 12:53:00;;;;;;;;;;;6.40;99.90;;;;;;5017072;28;20121;-79
2021/03/04 12:55:26;;;;;;;29.73;16.42;;;6.40;99.90;;;;;;5009883;28;19917;-78
2021/03/04 12:57:52;;;;;;;23.65;13.98;;;6.30;99.90;;;;;;5009129;28;20125;-78
2021/03/04 13:00:18;;;;;;;;;;;6.40;99.90;;;;;;5008731;28;20118;-78
2021/03/04 13:02:44;;;;;;;24.27;16.02;;;6.40;99.90;;;;;;5018341;28;20344;-79
2021/03/04 13:05:10;;;;;;;;;;;6.40;99.90;;;;;;5009655;28;20149;-80